createdAt,value
2023-05-07T00:01:23.253Z,0.88
2023-05-07T00:03:53.412Z,1.02
2023-05-07T00:06:24.158Z,0.98
2023-05-07T00:08:56.795Z,0.73
2023-05-07T00:11:27.016Z,0.90
2023-05-07T00:13:57.559Z,1.40
2023-05-07T00:16:28.035Z,1.10
2023-05-07T00:18:58.146Z,1.05
2023-05-07T00:21:29.973Z,1.08
2023-05-07T00:24:02.628Z,1.02
2023-05-07T00:26:32.877Z,1.38
2023-05-07T00:29:03.191Z,1.20
2023-05-07T00:31:33.667Z,1.50
2023-05-07T00:34:04.051Z,1.80
2023-05-07T00:36:34.365Z,1.75
2023-05-07T00:39:08.013Z,1.58
2023-05-07T00:41:38.299Z,1.20
2023-05-07T00:44:08.564Z,1.42
2023-05-07T00:46:38.942Z,1.33
2023-05-07T00:49:09.189Z,1.27
2023-05-07T00:51:39.218Z,1.17
2023-05-07T00:54:12.575Z,2.28
2023-05-07T00:56:42.930Z,1.88
2023-05-07T00:59:13.284Z,1.70
2023-05-07T01:01:43.607Z,1.70
2023-05-07T01:04:13.803Z,1.48
2023-05-07T01:06:45.646Z,1.65
2023-05-07T01:09:19.220Z,1.80
2023-05-07T01:11:49.714Z,1.70
2023-05-07T01:14:20.340Z,2.15
2023-05-07T01:16:52.237Z,2.05
2023-05-07T01:21:58.201Z,2.13
2023-05-07T01:24:31.359Z,1.77
2023-05-07T01:27:02.618Z,1.97
2023-05-07T01:29:36.288Z,2.30
2023-05-07T01:32:07.350Z,2.45
2023-05-07T01:34:40.205Z,2.33
2023-05-07T01:37:10.744Z,2.30
2023-05-07T01:39:44.636Z,2.65
2023-05-07T01:42:14.716Z,2.22
2023-05-07T01:44:44.967Z,2.20
2023-05-07T01:47:16.566Z,2.13
2023-05-07T01:49:47.276Z,2.47
2023-05-07T01:52:17.645Z,2.50
2023-05-07T01:54:50.268Z,2.67
2023-05-07T01:57:20.477Z,2.90
2023-05-07T01:59:51.568Z,2.53
2023-05-07T02:02:22.316Z,2.97
2023-05-07T02:04:53.224Z,2.90
2023-05-07T02:07:25.693Z,2.97
2023-05-07T02:09:59.415Z,2.50
2023-05-07T02:12:29.712Z,2.47
2023-05-07T02:15:00.049Z,3.40
2023-05-07T02:17:33.020Z,2.97
2023-05-07T02:20:05.020Z,2.67
2023-05-07T02:22:35.322Z,3.10
2023-05-07T02:25:08.860Z,2.83
2023-05-07T02:27:39.130Z,3.70
2023-05-07T02:30:10.649Z,3.20
2023-05-07T02:32:41.431Z,3.25
2023-05-07T02:35:12.143Z,3.20
2023-05-07T02:37:42.436Z,3.50
2023-05-07T02:40:16.311Z,3.00
2023-05-07T02:42:46.616Z,3.03
2023-05-07T02:45:17.968Z,3.33
2023-05-07T02:47:49.578Z,3.08
2023-05-07T02:50:20.528Z,3.78
2023-05-07T02:52:51.191Z,4.20
2023-05-07T02:55:24.591Z,4.00
2023-05-07T02:57:55.042Z,3.53
2023-05-07T03:00:26.237Z,3.97
2023-05-07T03:03:06.795Z,3.65
2023-05-07T03:05:37.244Z,4.28
2023-05-07T03:08:07.761Z,4.47
2023-05-07T03:10:41.023Z,4.43
2023-05-07T03:13:11.665Z,4.07
2023-05-07T03:15:42.075Z,3.95
2023-05-07T03:18:12.615Z,4.22
2023-05-07T03:20:43.041Z,4.30
2023-05-07T03:23:13.398Z,3.80
2023-05-07T03:25:46.297Z,3.40
2023-05-07T03:28:16.810Z,4.57
2023-05-07T03:30:55.922Z,4.28
2023-05-07T03:33:26.525Z,4.45
2023-05-07T03:35:57.688Z,4.40
2023-05-07T03:38:29.577Z,4.85
2023-05-07T03:41:02.764Z,4.75
2023-05-07T03:43:33.216Z,4.70
2023-05-07T03:46:09.421Z,4.65
2023-05-07T03:48:39.884Z,4.63
2023-05-07T03:51:11.028Z,4.93
2023-05-07T03:53:41.664Z,5.53
2023-05-07T03:56:15.752Z,4.80
2023-05-07T03:58:47.297Z,5.30
2023-05-07T04:01:17.677Z,4.25
2023-05-07T04:03:48.078Z,5.40
2023-05-07T04:06:19.952Z,5.15
2023-05-07T04:08:52.282Z,4.97
2023-05-07T04:11:25.288Z,5.15
2023-05-07T04:13:55.736Z,5.03
2023-05-07T04:16:27.586Z,5.50
2023-05-07T04:18:57.952Z,5.75
2023-05-07T04:21:28.299Z,4.82
2023-05-07T04:24:00.512Z,5.25
2023-05-07T04:26:33.497Z,5.32
2023-05-07T04:29:03.979Z,5.90
2023-05-07T04:31:37.563Z,6.70
2023-05-07T04:34:08.434Z,5.70
2023-05-07T04:36:39.234Z,6.63
2023-05-07T04:39:14.628Z,5.60
2023-05-07T04:41:50.650Z,5.30
2023-05-07T04:44:21.020Z,6.33
2023-05-07T04:46:52.698Z,6.05
2023-05-07T04:49:23.040Z,4.88
2023-05-07T04:51:54.614Z,4.63
2023-05-07T04:54:27.678Z,5.45
2023-05-07T04:57:00.777Z,5.90
2023-05-07T04:59:31.152Z,5.25
2023-05-07T05:02:01.717Z,5.55
2023-05-07T05:04:32.474Z,5.70
2023-05-07T05:07:04.797Z,6.15
2023-05-07T05:09:35.315Z,6.18
2023-05-07T05:12:10.340Z,6.28
2023-05-07T05:14:42.022Z,5.90
2023-05-07T05:17:12.395Z,5.97
2023-05-07T05:19:42.706Z,5.75
2023-05-07T05:22:13.108Z,6.10
2023-05-07T05:24:43.390Z,6.03
2023-05-07T05:27:16.458Z,6.10
2023-05-07T05:29:46.802Z,5.03
2023-05-07T05:32:17.776Z,5.40
2023-05-07T05:34:48.933Z,5.72
2023-05-07T05:37:19.920Z,6.22
2023-05-07T05:39:50.550Z,5.90
2023-05-07T05:42:23.395Z,6.13
2023-05-07T05:44:53.702Z,6.13
2023-05-07T05:47:24.435Z,5.95
2023-05-07T05:49:57.864Z,5.35
2023-05-07T05:52:28.367Z,6.10
2023-05-07T05:55:00.527Z,6.00
2023-05-07T05:57:34.025Z,5.60
2023-05-07T06:00:05.382Z,6.07
2023-05-07T06:02:38.066Z,5.15
2023-05-07T06:05:10.662Z,5.13
2023-05-07T06:07:41.178Z,5.97
2023-05-07T06:10:12.426Z,5.88
2023-05-07T06:12:47.463Z,4.70
2023-05-07T06:15:17.988Z,5.55
2023-05-07T06:17:50.354Z,5.28
2023-05-07T06:20:21.130Z,5.18
2023-05-07T06:22:52.040Z,5.35
2023-05-07T06:25:22.474Z,4.72
2023-05-07T06:27:55.475Z,5.10
2023-05-07T06:30:27.996Z,5.07
2023-05-07T06:33:00.170Z,4.95
2023-05-07T06:35:31.235Z,4.78
2023-05-07T06:38:01.929Z,5.07
2023-05-07T06:40:33.794Z,5.15
2023-05-07T06:43:07.406Z,4.80
2023-05-07T06:45:46.438Z,4.80
2023-05-07T06:48:24.029Z,5.25
2023-05-07T06:51:01.467Z,4.43
2023-05-07T06:53:33.690Z,4.82
2023-05-07T06:56:05.170Z,5.03
2023-05-07T06:58:38.587Z,4.85
2023-05-07T07:01:09.693Z,4.72
2023-05-07T07:03:41.404Z,5.75
2023-05-07T07:06:11.756Z,4.30
2023-05-07T07:08:42.518Z,4.18
2023-05-07T07:11:15.409Z,4.53
2023-05-07T07:13:48.936Z,4.28
2023-05-07T07:16:19.302Z,4.35
2023-05-07T07:18:50.466Z,4.45
2023-05-07T07:21:21.056Z,4.80
2023-05-07T07:23:51.695Z,4.05
2023-05-07T07:26:23.767Z,4.28
2023-05-07T07:28:56.708Z,3.80
2023-05-07T07:31:27.631Z,4.78
2023-05-07T07:33:58.103Z,3.67
2023-05-07T07:36:38.934Z,4.55
2023-05-07T07:39:17.773Z,4.63
2023-05-07T07:41:49.161Z,3.70
2023-05-07T07:44:23.035Z,3.88
2023-05-07T07:46:58.220Z,4.38
2023-05-07T07:49:30.557Z,4.38
2023-05-07T07:52:03.969Z,4.20
2023-05-07T07:54:36.417Z,4.50
2023-05-07T07:57:07.869Z,3.80
2023-05-07T07:59:41.381Z,4.60
2023-05-07T08:02:12.706Z,4.10
2023-05-07T08:04:44.434Z,4.72
2023-05-07T08:07:14.805Z,3.90
2023-05-07T08:09:48.878Z,4.22
2023-05-07T08:12:21.491Z,3.58
2023-05-07T08:14:54.962Z,4.05
2023-05-07T08:17:26.028Z,4.43
2023-05-07T08:19:56.550Z,4.32
2023-05-07T08:22:26.865Z,4.22
2023-05-07T08:24:57.417Z,4.18
2023-05-07T08:27:27.778Z,4.00
2023-05-07T08:30:00.369Z,4.65
2023-05-07T08:32:30.971Z,4.03
2023-05-07T08:35:01.261Z,4.03
2023-05-07T08:37:31.885Z,4.20
2023-05-07T08:40:02.712Z,4.15
2023-05-07T08:42:40.184Z,4.18
2023-05-07T08:45:14.807Z,3.92
2023-05-07T08:47:51.155Z,4.00
2023-05-07T08:50:24.805Z,4.20
2023-05-07T08:52:55.532Z,3.42
2023-05-07T08:55:27.007Z,4.05
2023-05-07T08:57:57.108Z,3.78
2023-05-07T09:00:30.430Z,4.57
2023-05-07T09:03:02.023Z,4.28
2023-05-07T09:05:32.198Z,3.67
2023-05-07T09:08:03.551Z,4.20
2023-05-07T09:10:33.822Z,3.45
2023-05-07T09:13:04.230Z,3.40
2023-05-07T09:15:37.393Z,3.20
2023-05-07T09:18:08.118Z,2.85
2023-05-07T09:20:41.069Z,3.60
2023-05-07T09:23:12.371Z,3.58
2023-05-07T09:25:42.757Z,3.50
2023-05-07T09:28:19.439Z,2.30
2023-05-07T09:30:52.030Z,3.28
2023-05-07T09:33:23.298Z,3.30
2023-05-07T09:35:56.216Z,3.08
2023-05-07T09:38:26.474Z,2.83
2023-05-07T09:41:07.687Z,3.15
2023-05-07T09:43:46.259Z,2.85
2023-05-07T09:46:25.515Z,3.28
2023-05-07T09:49:00.174Z,3.28
2023-05-07T09:51:33.998Z,3.20
2023-05-07T09:54:04.866Z,2.58
2023-05-07T09:56:39.420Z,2.90
2023-05-07T09:59:11.398Z,2.50
2023-05-07T10:01:45.777Z,2.20
2023-05-07T10:04:17.766Z,2.80
2023-05-07T10:06:49.390Z,3.03
2023-05-07T10:09:20.377Z,2.63
2023-05-07T10:11:52.561Z,3.13
2023-05-07T10:14:25.669Z,2.95
2023-05-07T10:16:58.959Z,2.25
2023-05-07T10:19:31.585Z,2.85
2023-05-07T10:22:06.801Z,3.03
2023-05-07T10:24:41.353Z,2.72
2023-05-07T10:27:19.458Z,2.45
2023-05-07T10:30:04.518Z,3.10
2023-05-07T10:32:47.817Z,2.90
2023-05-07T10:35:33.879Z,2.97
2023-05-07T10:38:07.220Z,3.05
2023-05-07T10:40:40.307Z,2.60
2023-05-07T10:43:11.405Z,2.45
2023-05-07T10:46:14.076Z,2.40
2023-05-07T10:49:17.614Z,2.45
2023-05-07T10:52:27.322Z,2.95
2023-05-07T10:55:26.335Z,2.40
2023-05-07T10:58:32.367Z,2.72
2023-05-07T11:01:57.310Z,2.00
2023-05-07T11:04:42.739Z,2.05
2023-05-07T11:07:32.577Z,1.42
2023-05-07T11:10:11.634Z,1.70
2023-05-07T11:12:57.816Z,1.50
2023-05-07T11:15:48.016Z,0.77
2023-05-07T11:18:51.081Z,0.80
2023-05-07T11:21:43.047Z,1.25
2023-05-07T11:24:29.321Z,0.90
2023-05-07T11:27:03.989Z,0.82
2023-05-07T11:29:37.506Z,0.65
2023-05-07T11:32:12.080Z,0.60
2023-05-07T11:34:55.234Z,0.80
2023-05-07T11:37:30.953Z,0.73
2023-05-07T11:40:10.069Z,0.57
2023-05-07T11:42:42.239Z,0.63
2023-05-07T11:45:13.724Z,0.60
2023-05-07T11:47:46.028Z,0.68
2023-05-07T11:50:16.064Z,0.70
2023-05-07T11:52:55.765Z,0.50
2023-05-07T11:55:27.727Z,0.65
2023-05-07T11:57:58.024Z,0.50
2023-05-07T12:00:28.344Z,0.60
2023-05-07T12:02:58.759Z,1.00
2023-05-07T12:05:29.488Z,0.80
2023-05-07T12:08:03.388Z,0.45
2023-05-07T12:10:33.670Z,0.40
2023-05-07T12:13:04.012Z,1.10
2023-05-07T12:15:34.284Z,0.70
2023-05-07T12:18:04.755Z,1.10
2023-05-07T12:20:35.065Z,1.58
2023-05-07T12:23:08.313Z,1.92
2023-05-07T12:25:39.431Z,2.78
2023-05-07T12:28:09.971Z,1.95
2023-05-07T12:30:41.562Z,1.70
2023-05-07T12:33:12.122Z,1.58
2023-05-07T12:35:44.491Z,1.23
2023-05-07T12:38:18.918Z,1.30
2023-05-07T12:40:52.355Z,1.10
2023-05-07T12:43:22.920Z,0.93
2023-05-07T12:45:54.121Z,1.40
2023-05-07T12:48:28.169Z,1.08
2023-05-07T12:50:59.077Z,1.48
2023-05-07T12:53:32.696Z,1.67
2023-05-07T12:58:34.594Z,1.25
2023-05-07T13:01:08.176Z,1.42
2023-05-07T13:03:39.575Z,1.40
2023-05-07T13:06:11.661Z,1.27
2023-05-07T13:08:45.644Z,1.40
2023-05-07T13:11:16.455Z,1.20
2023-05-07T13:13:46.701Z,1.58
2023-05-07T13:16:17.141Z,1.27
2023-05-07T13:18:47.586Z,1.63
2023-05-07T13:21:18.076Z,1.95
2023-05-07T13:23:50.972Z,2.13
2023-05-07T13:26:26.910Z,1.50
2023-05-07T13:28:57.779Z,1.52
2023-05-07T13:31:28.490Z,1.83
2023-05-07T13:33:59.856Z,1.67
2023-05-07T13:36:30.538Z,1.98
2023-05-07T13:39:03.634Z,1.60
2023-05-07T13:41:33.902Z,1.92
2023-05-07T13:44:04.256Z,1.88
2023-05-07T13:46:34.640Z,1.50
2023-05-07T13:49:04.983Z,2.10
2023-05-07T13:51:35.893Z,1.70
2023-05-07T13:54:08.843Z,1.92
2023-05-07T13:56:39.185Z,1.90
2023-05-07T13:59:09.629Z,1.90
2023-05-07T14:01:39.962Z,1.80
2023-05-07T14:04:10.289Z,1.60
2023-05-07T14:06:40.561Z,2.13
2023-05-07T14:09:14.462Z,1.80
2023-05-07T14:11:44.957Z,1.48
2023-05-07T14:14:15.297Z,1.85
2023-05-07T14:16:46.224Z,2.00
2023-05-07T14:19:20.030Z,1.90
2023-05-07T14:21:50.319Z,1.90
2023-05-07T14:24:37.034Z,1.50
2023-05-07T14:27:08.279Z,1.55
2023-05-07T14:29:38.700Z,1.88
2023-05-07T14:32:09.181Z,1.98
2023-05-07T14:34:39.514Z,1.95
2023-05-07T14:37:09.808Z,1.60
2023-05-07T14:39:42.689Z,1.80
2023-05-07T14:42:13.592Z,2.35
2023-05-07T14:44:45.902Z,1.67
2023-05-07T14:47:18.279Z,1.67
2023-05-07T14:49:50.154Z,1.63
2023-05-07T14:52:20.552Z,1.45
2023-05-07T14:54:54.916Z,2.90
2023-05-07T14:59:55.732Z,1.60
2023-05-07T15:02:26.324Z,2.42
2023-05-07T15:04:59.687Z,6.30
2023-05-07T15:07:30.155Z,1.60
2023-05-07T15:10:03.268Z,1.65
2023-05-07T15:12:33.887Z,1.67
2023-05-07T15:15:04.305Z,1.80
2023-05-07T15:17:34.942Z,1.35
2023-05-07T15:20:05.861Z,1.27
2023-05-07T15:22:37.209Z,1.70
2023-05-07T15:25:11.150Z,1.55
2023-05-07T15:27:41.578Z,2.00
2023-05-07T15:30:13.542Z,1.55
2023-05-07T15:32:43.912Z,1.15
2023-05-07T15:35:14.585Z,1.30
2023-05-07T15:37:44.888Z,1.30
2023-05-07T15:40:18.200Z,1.63
2023-05-07T15:42:49.122Z,1.73
2023-05-07T15:45:19.398Z,1.67
2023-05-07T15:47:49.941Z,1.33
2023-05-07T15:50:20.304Z,1.60
2023-05-07T15:52:51.196Z,1.40
2023-05-07T15:55:24.055Z,1.70
2023-05-07T15:57:55.245Z,1.70
2023-05-07T16:00:26.564Z,1.60
2023-05-07T16:02:57.229Z,1.60
2023-05-07T16:05:28.049Z,1.10
2023-05-07T16:08:00.292Z,0.98
2023-05-07T16:10:33.704Z,1.30
2023-05-07T16:13:06.845Z,1.20
2023-05-07T16:15:37.178Z,1.98
2023-05-07T16:18:08.071Z,1.80
2023-05-07T16:20:38.785Z,1.30
2023-05-07T16:23:09.290Z,1.45
2023-05-07T16:25:42.424Z,1.35
2023-05-07T16:28:12.752Z,7.13
2023-05-07T16:30:43.309Z,2.17
2023-05-07T16:33:13.642Z,2.38
2023-05-07T16:35:47.662Z,1.90
2023-05-07T16:38:20.431Z,1.80
2023-05-07T16:40:53.433Z,1.42
2023-05-07T16:43:23.755Z,1.40
2023-05-07T16:45:54.220Z,1.40
2023-05-07T16:48:24.569Z,1.92
2023-05-07T16:50:54.881Z,1.67
2023-05-07T16:53:25.504Z,1.90
2023-05-07T16:55:58.692Z,2.20
2023-05-07T16:58:30.360Z,5.57
2023-05-07T17:01:00.721Z,2.38
2023-05-07T17:03:32.358Z,1.73
2023-05-07T17:06:03.286Z,1.80
2023-05-07T17:08:33.568Z,1.85
2023-05-07T17:11:06.429Z,2.30
2023-05-07T17:13:36.820Z,2.08
2023-05-07T17:16:07.374Z,2.17
2023-05-07T17:18:37.911Z,2.47
2023-05-07T17:21:08.323Z,2.22
2023-05-07T17:23:38.645Z,2.28
2023-05-07T17:26:17.380Z,2.72
2023-05-07T17:28:47.614Z,2.70
2023-05-07T17:31:18.253Z,2.50
2023-05-07T17:33:48.608Z,2.30
2023-05-07T17:36:18.933Z,2.42
2023-05-07T17:38:49.308Z,2.55
2023-05-07T17:41:22.815Z,2.40
2023-05-07T17:43:53.106Z,2.70
2023-05-07T17:46:23.453Z,3.17
2023-05-07T17:48:53.751Z,2.83
2023-05-07T17:51:26.079Z,2.72
2023-05-07T17:53:56.525Z,2.88
2023-05-07T17:56:29.488Z,2.55
2023-05-07T17:58:59.853Z,1.83
2023-05-07T18:01:30.212Z,2.70
2023-05-07T18:04:00.933Z,2.78
2023-05-07T18:06:32.338Z,2.60
2023-05-07T18:09:02.693Z,2.22
2023-05-07T18:11:36.338Z,1.98
2023-05-07T18:14:06.721Z,2.40
2023-05-07T18:16:37.384Z,2.50
2023-05-07T18:19:07.799Z,1.80
2023-05-07T18:21:38.265Z,2.10
2023-05-07T18:24:08.887Z,2.00
2023-05-07T18:26:41.754Z,1.70
2023-05-07T18:29:12.237Z,1.75
2023-05-07T18:31:42.714Z,2.00
2023-05-07T18:34:14.477Z,2.45
2023-05-07T18:36:44.791Z,1.90
2023-05-07T18:39:15.124Z,2.42
2023-05-07T18:41:49.030Z,1.90
2023-05-07T18:44:19.600Z,2.17
2023-05-07T18:46:49.934Z,1.52
2023-05-07T18:49:20.280Z,1.80
2023-05-07T18:51:50.437Z,2.25
2023-05-07T18:54:20.758Z,2.10
2023-05-07T18:56:53.635Z,2.00
2023-05-07T18:59:23.640Z,1.92
2023-05-07T19:01:54.099Z,2.28
2023-05-07T19:04:24.700Z,2.20
2023-05-07T19:06:55.124Z,1.75
2023-05-07T19:09:25.563Z,2.03
2023-05-07T19:11:58.746Z,2.08
2023-05-07T19:14:29.126Z,1.95
2023-05-07T19:16:59.778Z,1.83
2023-05-07T19:19:30.065Z,1.88
2023-05-07T19:22:00.342Z,1.80
2023-05-07T19:24:30.621Z,1.52
2023-05-07T19:27:03.680Z,1.90
2023-05-07T19:29:34.571Z,1.60
2023-05-07T19:32:04.885Z,1.70
2023-05-07T19:34:35.951Z,1.92
2023-05-07T19:37:06.223Z,2.25
2023-05-07T19:39:36.512Z,1.83
2023-05-07T19:42:09.652Z,1.85
2023-05-07T19:44:39.878Z,2.50
2023-05-07T19:47:10.123Z,2.00
2023-05-07T19:49:40.374Z,1.98
2023-05-07T19:52:10.711Z,2.30
2023-05-07T19:54:40.724Z,2.30
2023-05-07T19:57:13.600Z,2.60
2023-05-07T19:59:43.878Z,1.90
2023-05-07T20:02:15.454Z,1.52
2023-05-07T20:04:45.791Z,2.00
2023-05-07T20:07:16.147Z,1.67
2023-05-07T20:09:46.404Z,1.80
2023-05-07T20:12:19.186Z,2.10
2023-05-07T20:14:49.182Z,1.73
2023-05-07T20:17:19.837Z,2.38
2023-05-07T20:19:50.108Z,2.17
2023-05-07T20:22:20.602Z,2.45
2023-05-07T20:24:50.682Z,2.40
2023-05-07T20:27:25.010Z,2.17
2023-05-07T20:29:55.632Z,2.40
2023-05-07T20:32:26.695Z,2.60
2023-05-07T20:34:56.898Z,2.40
2023-05-07T20:37:27.090Z,2.47
2023-05-07T20:39:57.324Z,2.40
2023-05-07T20:42:30.025Z,2.95
2023-05-07T20:45:01.655Z,2.83
2023-05-07T20:47:34.800Z,2.70
2023-05-07T20:50:04.848Z,2.53
2023-05-07T20:52:35.174Z,2.80
2023-05-07T20:55:05.145Z,2.90
2023-05-07T20:57:37.758Z,2.45
2023-05-07T21:00:09.489Z,2.83
2023-05-07T21:02:40.071Z,2.92
2023-05-07T21:05:10.851Z,2.55
2023-05-07T21:07:41.085Z,2.95
2023-05-07T21:10:12.468Z,3.05
2023-05-07T21:12:45.280Z,2.70
2023-05-07T21:15:15.315Z,2.90
2023-05-07T21:17:45.698Z,2.70
2023-05-07T21:20:16.187Z,3.15
2023-05-07T21:22:46.388Z,2.97
2023-05-07T21:25:16.656Z,3.25
2023-05-07T21:27:49.216Z,3.55
2023-05-07T21:30:19.485Z,2.97
2023-05-07T21:32:50.059Z,2.75
2023-05-07T21:35:20.384Z,3.22
2023-05-07T21:37:50.363Z,3.30
2023-05-07T21:40:20.614Z,3.47
2023-05-07T21:42:53.191Z,2.97
2023-05-07T21:45:23.608Z,2.80
2023-05-07T21:47:53.856Z,3.53
2023-05-07T21:50:24.200Z,2.72
2023-05-07T21:52:54.400Z,3.00
2023-05-07T21:55:24.599Z,3.08
2023-05-07T21:58:04.821Z,3.00
2023-05-07T22:00:36.626Z,3.03
2023-05-07T22:03:06.922Z,2.80
2023-05-07T22:05:36.941Z,2.80
2023-05-07T22:08:07.835Z,2.92
2023-05-07T22:10:38.080Z,3.28
2023-05-07T22:13:10.686Z,2.42
2023-05-07T22:15:53.192Z,2.90
2023-05-07T22:18:27.563Z,2.63
2023-05-07T22:20:57.853Z,2.95
2023-05-07T22:23:28.163Z,3.22
2023-05-07T22:25:58.496Z,3.00
2023-05-07T22:28:31.116Z,3.47
2023-05-07T22:31:01.103Z,3.30
2023-05-07T22:33:31.405Z,3.08
2023-05-07T22:36:01.482Z,3.60
2023-05-07T22:38:31.563Z,3.63
2023-05-07T22:41:02.330Z,3.08
2023-05-07T22:43:35.355Z,3.47
2023-05-07T22:46:05.523Z,3.30
2023-05-07T22:48:36.022Z,3.13
2023-05-07T22:51:06.321Z,3.17
2023-05-07T22:53:36.276Z,2.67
2023-05-07T22:56:08.456Z,3.08
2023-05-07T22:58:41.324Z,3.55
2023-05-07T23:01:15.497Z,3.45
2023-05-07T23:06:15.503Z,2.83
2023-05-07T23:08:45.652Z,3.10
2023-05-07T23:11:15.939Z,3.10
2023-05-07T23:13:48.520Z,3.28
2023-05-07T23:16:18.648Z,3.65
2023-05-07T23:18:49.352Z,3.83
2023-05-07T23:21:19.313Z,3.60
2023-05-07T23:23:50.038Z,4.30
2023-05-07T23:26:20.330Z,3.45
2023-05-07T23:28:52.885Z,3.78
2023-05-07T23:31:23.204Z,3.65
2023-05-07T23:33:53.221Z,3.58
2023-05-07T23:36:23.463Z,4.60
2023-05-07T23:38:53.488Z,3.90
2023-05-07T23:41:23.954Z,3.60
2023-05-07T23:43:56.791Z,3.70
2023-05-07T23:46:27.553Z,3.88
2023-05-07T23:48:57.511Z,4.43
2023-05-07T23:51:27.787Z,3.80
2023-05-07T23:53:58.082Z,3.88
2023-05-07T23:56:28.316Z,3.63
2023-05-07T23:59:01.140Z,4.40
